Time;durP1;ratioP1;P1;durP2;ratioP2;P2;SDS_P1;SDS_P2;PMS_P1;PMS_P2;Temp;Humidity;BMP_temperature;BMP_pressure;BME280_temperature;BME280_humidity;BME280_pressure;Samples;Min_cycle;Max_cycle;Signal;HPM_P1;HPM_P2
2023/11/11 00:00:59;;;;;;;31.40;23.90;;;;;;;6.12;100.00;95271.06;108702;1268;25307;-75
2023/11/11 00:03:52;;;;;;;32.60;24.90;;;;;;;6.12;100.00;95273.39;108680;1275;23002;-75
2023/11/11 00:06:24;;;;;;;28.30;22.30;;;;;;;6.12;100.00;95274.11;108725;1265;22517;-75
2023/11/11 00:08:56;;;;;;;26.50;21.40;;;;;;;6.14;100.00;95277.34;108690;1275;23879;-75
2023/11/11 00:11:30;;;;;;;25.50;20.90;;;;;;;6.14;100.00;95278.35;108722;1275;24186;-75
2023/11/11 00:14:08;;;;;;;27.90;21.90;;;;;;;6.13;100.00;95277.94;108712;1275;25357;-75
2023/11/11 00:16:40;;;;;;;29.30;23.30;;;;;;;6.14;100.00;95275.66;108734;1275;22517;-75
2023/11/11 00:19:14;;;;;;;28.80;21.60;;;;;;;6.15;100.00;95278.54;108674;1274;25280;-75
2023/11/11 00:21:49;;;;;;;26.70;22.30;;;;;;;6.15;100.00;95277.49;108657;1275;22658;-75
2023/11/11 00:24:20;;;;;;;27.00;22.60;;;;;;;6.16;100.00;95276.64;108653;1275;25499;-75
2023/11/11 00:26:52;;;;;;;25.00;19.10;;;;;;;6.18;100.00;95280.39;108642;1275;22559;-75
2023/11/11 00:29:23;;;;;;;21.40;17.20;;;;;;;6.18;100.00;95278.29;108628;1275;22970;-75
2023/11/11 00:31:57;;;;;;;23.40;18.20;;;;;;;6.18;100.00;95276.87;108558;1271;22620;-76
2023/11/11 00:34:30;;;;;;;22.10;17.50;;;;;;;6.17;100.00;95277.98;108715;1271;22541;-75
2023/11/11 00:37:03;;;;;;;21.50;16.50;;;;;;;6.18;100.00;95281.19;108651;1275;22794;-75
2023/11/11 00:39:37;;;;;;;20.80;16.80;;;;;;;6.16;100.00;95278.25;108658;1275;22757;-75
2023/11/11 00:42:10;;;;;;;16.70;13.00;;;;;;;6.17;100.00;95281.88;108667;1271;22676;-75
2023/11/11 00:44:44;;;;;;;18.60;13.40;;;;;;;6.14;100.00;95280.61;108694;1267;22545;-75
2023/11/11 00:47:16;;;;;;;18.70;14.40;;;;;;;6.11;100.00;95279.02;108660;1275;23001;-75
2023/11/11 00:49:49;;;;;;;18.70;14.90;;;;;;;6.10;100.00;95278.87;108658;1275;22532;-75
2023/11/11 00:52:23;;;;;;;19.80;15.00;;;;;;;6.09;100.00;95277.84;108689;1275;22531;-75
2023/11/11 00:54:56;;;;;;;22.20;17.80;;;;;;;6.08;100.00;95276.42;108720;1275;22529;-75
2023/11/11 00:57:31;;;;;;;20.40;15.90;;;;;;;6.08;100.00;95274.64;108696;1275;22858;-75
2023/11/11 01:00:04;;;;;;;21.90;17.70;;;;;;;6.09;100.00;95274.89;108673;1271;22521;-75
2023/11/11 01:02:35;;;;;;;26.80;19.10;;;;;;;6.09;100.00;95272.90;108696;1271;23384;-75
2023/11/11 01:05:09;;;;;;;27.70;20.40;;;;;;;6.09;100.00;95269.84;108711;1274;22527;-76
2023/11/11 01:07:43;;;;;;;25.90;20.70;;;;;;;6.11;100.00;95270.40;108700;1275;22536;-75
2023/11/11 01:10:22;;;;;;;27.00;21.50;;;;;;;6.13;100.00;95273.99;108715;1275;22964;-75
2023/11/11 01:12:56;;;;;;;24.40;19.30;;;;;;;6.15;100.00;95271.81;108635;1275;22548;-75
2023/11/11 01:15:32;;;;;;;29.30;21.40;;;;;;;6.16;100.00;95268.69;108736;1275;22556;-75
2023/11/11 01:18:03;;;;;;;24.50;20.40;;;;;;;6.17;100.00;95266.78;108691;1275;25259;-75
2023/11/11 01:20:35;;;;;;;25.50;20.50;;;;;;;6.18;100.00;95266.96;108707;1275;22536;-75
2023/11/11 01:23:11;;;;;;;23.30;19.10;;;;;;;6.20;100.00;95268.49;108712;1267;23980;-75
2023/11/11 01:25:44;;;;;;;18.90;15.40;;;;;;;6.21;100.00;95266.85;108694;1275;23490;-75
2023/11/11 01:28:22;;;;;;;20.00;15.60;;;;;;;6.22;100.00;95265.58;108684;1269;22526;-75
2023/11/11 01:30:54;;;;;;;15.60;12.50;;;;;;;6.21;100.00;95268.27;108676;1269;23256;-75
2023/11/11 01:33:33;;;;;;;15.70;12.60;;;;;;;6.16;100.00;95266.99;108665;1275;25433;-75
2023/11/11 01:36:04;;;;;;;15.70;12.30;;;;;;;6.12;100.00;95262.33;108693;1275;24267;-75
2023/11/11 01:38:36;;;;;;;15.50;12.60;;;;;;;6.10;100.00;95259.41;108709;1275;22613;-75
2023/11/11 01:41:07;;;;;;;15.30;12.50;;;;;;;6.08;100.00;95254.44;108709;1275;22539;-75
2023/11/11 01:43:43;;;;;;;15.40;11.90;;;;;;;6.06;100.00;95252.73;108642;1272;22541;-75
2023/11/11 01:46:16;;;;;;;14.70;11.70;;;;;;;6.04;100.00;95251.00;108694;1275;25523;-75
2023/11/11 01:48:53;;;;;;;15.90;12.10;;;;;;;6.02;100.00;95245.40;108688;1275;22521;-75
2023/11/11 01:51:29;;;;;;;15.80;11.50;;;;;;;5.99;100.00;95240.76;108720;1272;22524;-74
2023/11/11 01:54:05;;;;;;;15.20;12.10;;;;;;;5.98;100.00;95235.25;108706;1272;24242;-75
2023/11/11 01:56:41;;;;;;;15.40;12.20;;;;;;;5.96;100.00;95233.49;108713;1274;22523;-75
2023/11/11 01:59:17;;;;;;;15.20;11.40;;;;;;;5.95;100.00;95232.02;108703;1272;22570;-75
2023/11/11 02:01:51;;;;;;;14.50;11.00;;;;;;;5.95;100.00;95228.77;108709;1275;22529;-75
2023/11/11 02:04:23;;;;;;;13.60;11.00;;;;;;;5.93;100.00;95229.89;108712;1275;22534;-75
2023/11/11 02:06:56;;;;;;;12.40;9.80;;;;;;;5.91;100.00;95228.65;108688;1269;22543;-75
2023/11/11 02:09:31;;;;;;;13.10;9.90;;;;;;;5.89;100.00;95230.11;108683;1272;22548;-75
2023/11/11 02:12:06;;;;;;;12.90;10.30;;;;;;;5.88;100.00;95232.13;108661;1275;22586;-75
2023/11/11 02:14:39;;;;;;;13.10;10.00;;;;;;;5.85;100.00;95229.85;108631;1275;26619;-75
2023/11/11 02:17:15;;;;;;;13.90;9.70;;;;;;;5.83;100.00;95228.67;108700;1269;22579;-75
2023/11/11 02:19:49;;;;;;;15.60;11.10;;;;;;;5.81;100.00;95230.05;108702;1274;22931;-75
2023/11/11 02:22:22;;;;;;;11.80;9.40;;;;;;;5.79;100.00;95228.83;108659;1253;22534;-75
2023/11/11 02:24:56;;;;;;;12.10;9.10;;;;;;;5.78;100.00;95225.38;108657;1271;25292;-75
2023/11/11 02:27:31;;;;;;;11.50;9.20;;;;;;;5.77;100.00;95224.95;108711;1275;26478;-75
2023/11/11 02:30:11;;;;;;;13.00;9.70;;;;;;;5.76;100.00;95225.16;108672;1275;24059;-75
2023/11/11 02:32:44;;;;;;;13.50;10.00;;;;;;;5.75;100.00;95218.86;108649;1275;23888;-75
2023/11/11 02:35:19;;;;;;;14.40;11.60;;;;;;;5.76;100.00;95215.27;108689;1275;25442;-75
2023/11/11 02:37:54;;;;;;;13.80;10.10;;;;;;;5.76;100.00;95211.42;108663;1274;22518;-75
2023/11/11 02:40:29;;;;;;;13.60;9.40;;;;;;;5.76;100.00;95208.02;108698;1272;26573;-75
2023/11/11 02:43:06;;;;;;;12.60;9.80;;;;;;;5.76;100.00;95203.39;108669;1272;24726;-75
2023/11/11 02:45:40;;;;;;;12.00;9.90;;;;;;;5.78;100.00;95204.28;108704;1257;22578;-75
2023/11/11 02:48:11;;;;;;;13.40;10.10;;;;;;;5.79;100.00;95205.53;108674;1271;22524;-75
2023/11/11 02:50:49;;;;;;;11.90;8.70;;;;;;;5.79;100.00;95200.95;108707;1275;22552;-75
2023/11/11 02:53:23;;;;;;;11.30;9.40;;;;;;;5.79;100.00;95198.96;108685;1269;22514;-75
2023/11/11 02:55:57;;;;;;;15.00;10.80;;;;;;;5.79;100.00;95194.77;108695;1275;25718;-75
2023/11/11 02:58:33;;;;;;;15.20;12.20;;;;;;;5.78;100.00;95197.60;108678;1272;22539;-75
2023/11/11 03:01:08;;;;;;;15.70;11.80;;;;;;;5.75;100.00;95197.73;108690;1275;22689;-75
2023/11/11 03:03:44;;;;;;;19.80;14.90;;;;;;;5.67;100.00;95200.41;108689;1269;22517;-75
2023/11/11 03:06:18;;;;;;;17.70;14.30;;;;;;;5.62;100.00;95197.51;108693;1275;25953;-75
2023/11/11 03:08:52;;;;;;;15.50;12.50;;;;;;;5.60;100.00;95200.21;108678;1272;22533;-75
2023/11/11 03:11:24;;;;;;;17.60;13.60;;;;;;;5.61;100.00;95202.20;108694;1275;22541;-75
2023/11/11 03:13:56;;;;;;;19.40;14.30;;;;;;;5.62;100.00;95203.55;108689;1271;22528;-75
2023/11/11 03:16:36;;;;;;;14.80;11.80;;;;;;;5.62;100.00;95203.34;108694;1273;22812;-75
2023/11/11 03:19:09;;;;;;;17.10;12.80;;;;;;;5.60;100.00;95195.38;108762;1275;25407;-75
2023/11/11 03:21:41;;;;;;;16.20;12.90;;;;;;;5.60;100.00;95196.70;108686;1275;22517;-75
2023/11/11 03:24:13;;;;;;;16.10;11.40;;;;;;;5.60;100.00;95196.65;108686;1275;22583;-75
2023/11/11 03:26:45;;;;;;;15.50;12.40;;;;;;;5.57;100.00;95192.84;108705;1272;22542;-75
2023/11/11 03:29:19;;;;;;;19.00;13.50;;;;;;;5.58;100.00;95192.73;108685;1271;24226;-75
2023/11/11 03:31:50;;;;;;;16.40;13.30;;;;;;;5.60;100.00;95193.59;108697;1275;22549;-75
2023/11/11 03:34:22;;;;;;;15.60;10.70;;;;;;;5.61;100.00;95194.16;108650;1272;24207;-75
2023/11/11 03:36:55;;;;;;;14.10;11.20;;;;;;;5.61;100.00;95196.27;108641;1275;24087;-75
2023/11/11 03:39:31;;;;;;;14.80;11.50;;;;;;;5.60;100.00;95197.27;108649;1275;22529;-75
2023/11/11 03:42:07;;;;;;;13.90;10.50;;;;;;;5.59;100.00;95194.81;108645;1272;22668;-75
2023/11/11 03:44:43;;;;;;;14.60;12.00;;;;;;;5.59;100.00;95194.50;108715;1272;26725;-75
2023/11/11 03:47:16;;;;;;;13.70;10.90;;;;;;;5.59;100.00;95192.61;108691;1275;22535;-75
2023/11/11 03:49:47;;;;;;;13.80;10.50;;;;;;;5.58;100.00;95195.66;108703;1269;22575;-75
2023/11/11 03:52:20;;;;;;;12.90;9.80;;;;;;;5.58;100.00;95194.14;108682;1272;22541;-75
2023/11/11 03:54:56;;;;;;;13.90;11.50;;;;;;;5.59;100.00;95191.56;108735;1272;22528;-75
2023/11/11 03:57:28;;;;;;;11.10;9.00;;;;;;;5.58;100.00;95194.02;108682;1275;22605;-75
2023/11/11 04:00:02;;;;;;;12.50;9.90;;;;;;;5.58;100.00;95189.79;108704;1275;25307;-75
2023/11/11 04:02:33;;;;;;;11.80;9.40;;;;;;;5.58;100.00;95186.04;108659;1272;25467;-75
2023/11/11 04:05:05;;;;;;;12.90;8.80;;;;;;;5.58;100.00;95182.42;108706;1273;22543;-75
2023/11/11 04:07:36;;;;;;;12.90;9.90;;;;;;;5.57;100.00;95179.44;108737;1275;22572;-75
2023/11/11 04:10:19;;;;;;;13.80;11.30;;;;;;;5.57;100.00;95176.59;108671;1275;22518;-75
2023/11/11 04:12:52;;;;;;;14.40;11.10;;;;;;;5.57;100.00;95176.02;108670;1275;25332;-75
2023/11/11 04:15:25;;;;;;;13.20;10.40;;;;;;;5.58;100.00;95177.01;108722;1272;24120;-75
2023/11/11 04:17:56;;;;;;;15.30;10.90;;;;;;;5.57;100.00;95174.13;108691;1272;24424;-75
2023/11/11 04:20:27;;;;;;;13.30;11.00;;;;;;;5.57;100.00;95172.29;108704;1270;27333;-75
2023/11/11 04:22:59;;;;;;;13.30;9.90;;;;;;;5.56;100.00;95168.31;108675;1267;22544;-75
2023/11/11 04:25:32;;;;;;;9.90;7.90;;;;;;;5.54;100.00;95162.50;108712;1272;24192;-75
2023/11/11 04:28:06;;;;;;;12.10;8.20;;;;;;;5.52;100.00;95160.21;108653;1272;22546;-76
2023/11/11 04:30:39;;;;;;;13.10;10.90;;;;;;;5.50;100.00;95152.83;108704;1275;25288;-75
2023/11/11 04:33:13;;;;;;;12.90;9.00;;;;;;;5.48;100.00;95150.78;108700;1273;22696;-75
2023/11/11 04:35:47;;;;;;;14.00;9.40;;;;;;;5.47;100.00;95149.21;108694;1275;22520;-75
2023/11/11 04:38:23;;;;;;;13.00;8.80;;;;;;;5.47;100.00;95148.96;108667;1275;22518;-75
2023/11/11 04:40:54;;;;;;;11.20;8.10;;;;;;;5.46;100.00;95146.45;108718;1275;26761;-75
2023/11/11 04:43:34;;;;;;;13.50;10.70;;;;;;;5.47;100.00;95148.80;108671;1275;22524;-75
2023/11/11 04:46:06;;;;;;;13.20;9.80;;;;;;;5.46;100.00;95151.39;108677;1271;22591;-75
2023/11/11 04:48:38;;;;;;;15.50;10.00;;;;;;;5.46;100.00;95153.96;108734;1267;22579;-75
2023/11/11 04:51:12;;;;;;;11.50;9.00;;;;;;;5.46;100.00;95154.75;108677;1275;23938;-75
2023/11/11 04:53:43;;;;;;;12.30;8.10;;;;;;;5.45;100.00;95151.81;108636;1271;26692;-75
2023/11/11 04:56:15;;;;;;;12.50;9.40;;;;;;;5.46;100.00;95148.23;108675;1275;25311;-75
2023/11/11 04:58:46;;;;;;;10.80;7.50;;;;;;;5.45;100.00;95150.40;108687;1275;22603;-75
2023/11/11 05:01:19;;;;;;;12.30;8.60;;;;;;;5.46;100.00;95148.60;108668;1275;22540;-75
2023/11/11 05:03:53;;;;;;;10.20;8.30;;;;;;;5.44;100.00;95147.90;108668;1272;30271;-75
2023/11/11 05:06:27;;;;;;;9.90;7.40;;;;;;;5.43;100.00;95149.02;108675;1275;22656;-75
2023/11/11 05:09:00;;;;;;;10.20;6.90;;;;;;;5.41;100.00;95151.35;108709;1271;23488;-75
2023/11/11 05:11:40;;;;;;;10.40;8.40;;;;;;;5.42;100.00;95151.55;108734;1275;22619;-75
2023/11/11 05:14:17;;;;;;;11.20;8.40;;;;;;;5.42;100.00;95151.08;108627;1275;22529;-75
2023/11/11 05:16:52;;;;;;;11.40;8.30;;;;;;;5.41;100.00;95155.34;108688;1275;22516;-75
2023/11/11 05:19:24;;;;;;;11.50;8.30;;;;;;;5.41;100.00;95152.61;108708;1275;23683;-75
2023/11/11 05:21:55;;;;;;;12.20;9.50;;;;;;;5.41;100.00;95150.94;108637;1258;22587;-75
2023/11/11 05:24:29;;;;;;;10.10;8.10;;;;;;;5.41;100.00;95149.09;108702;1273;25445;-75
2023/11/11 05:27:07;;;;;;;13.30;9.20;;;;;;;5.43;100.00;95151.85;108634;1275;25427;-75
2023/11/11 05:29:39;;;;;;;11.60;8.50;;;;;;;5.45;100.00;95153.60;108658;1275;22514;-75
2023/11/11 05:32:12;;;;;;;9.40;7.20;;;;;;;5.47;100.00;95154.94;108693;1275;24238;-75
2023/11/11 05:34:45;;;;;;;11.30;8.80;;;;;;;5.49;100.00;95161.55;108695;1272;22993;-75
2023/11/11 05:37:18;;;;;;;12.50;8.90;;;;;;;5.49;100.00;95164.71;108666;1275;22542;-75
2023/11/11 05:39:49;;;;;;;9.80;7.90;;;;;;;5.50;100.00;95166.49;108694;1275;22933;-75
2023/11/11 05:42:28;;;;;;;9.70;7.20;;;;;;;5.50;100.00;95167.39;108683;1275;22535;-75
2023/11/11 05:44:59;;;;;;;9.60;7.70;;;;;;;5.51;100.00;95171.33;108709;1275;22565;-75
2023/11/11 05:47:33;;;;;;;9.00;7.00;;;;;;;5.52;100.00;95168.48;108711;1275;24134;-75
2023/11/11 05:50:06;;;;;;;9.90;7.30;;;;;;;5.54;100.00;95171.13;108700;1275;25571;-75
2023/11/11 05:52:40;;;;;;;10.50;8.20;;;;;;;5.54;100.00;95167.64;108690;1275;24104;-75
2023/11/11 05:55:12;;;;;;;11.60;8.30;;;;;;;5.55;100.00;95167.54;108701;1275;22583;-75
2023/11/11 05:57:43;;;;;;;9.70;7.10;;;;;;;5.54;100.00;95172.06;108706;1269;22525;-75
2023/11/11 06:00:16;;;;;;;9.00;6.50;;;;;;;5.53;100.00;95174.98;108693;1275;22527;-75
2023/11/11 06:02:51;;;;;;;10.40;5.20;;;;;;;5.53;100.00;95174.45;108685;1275;22865;-75
2023/11/11 06:05:25;;;;;;;6.60;4.00;;;;;;;5.52;100.00;95176.82;108698;1275;22590;-75
2023/11/11 06:07:56;;;;;;;10.50;6.50;;;;;;;5.50;100.00;95176.84;108699;1275;22510;-75
2023/11/11 06:10:33;;;;;;;6.20;4.90;;;;;;;5.49;100.00;95179.52;108674;1268;22531;-75
2023/11/11 06:13:05;;;;;;;9.20;6.30;;;;;;;5.47;100.00;95177.39;108659;1275;25644;-75
2023/11/11 06:15:37;;;;;;;7.30;5.40;;;;;;;5.48;100.00;95183.20;108679;1275;22559;-75
2023/11/11 06:18:11;;;;;;;7.70;5.70;;;;;;;5.48;100.00;95179.85;108686;1275;22589;-75
2023/11/11 06:20:43;;;;;;;7.30;5.10;;;;;;;5.48;100.00;95178.54;108692;1257;22539;-75
2023/11/11 06:23:14;;;;;;;8.60;6.10;;;;;;;5.49;100.00;95184.04;108685;1267;22521;-74
2023/11/11 06:25:46;;;;;;;8.70;6.20;;;;;;;5.48;100.00;95184.89;108699;1275;22589;-74
2023/11/11 06:28:20;;;;;;;9.20;6.80;;;;;;;5.49;100.00;95184.05;108691;1269;22530;-74
2023/11/11 06:30:57;;;;;;;9.10;6.90;;;;;;;5.50;100.00;95191.16;108663;1272;24225;-74
2023/11/11 06:33:33;;;;;;;8.80;6.80;;;;;;;5.51;100.00;95195.82;108657;1275;22521;-74
2023/11/11 06:36:10;;;;;;;8.00;6.10;;;;;;;5.52;100.00;95197.91;108713;1275;24212;-75
2023/11/11 06:38:44;;;;;;;5.40;4.30;;;;;;;5.52;100.00;95197.54;108692;1272;22533;-75
2023/11/11 06:41:17;;;;;;;8.60;6.10;;;;;;;5.51;100.00;95196.65;108686;1275;22566;-75
2023/11/11 06:43:51;;;;;;;10.50;6.80;;;;;;;5.52;100.00;95196.70;108696;1275;22527;-75
2023/11/11 06:46:23;;;;;;;8.30;5.50;;;;;;;5.51;100.00;95197.65;108695;1275;22625;-75
2023/11/11 06:48:54;;;;;;;6.20;4.30;;;;;;;5.52;100.00;95198.86;108688;1275;22606;-75
2023/11/11 06:51:27;;;;;;;6.20;4.40;;;;;;;5.50;100.00;95196.45;108684;1275;22530;-75
2023/11/11 06:54:04;;;;;;;5.70;4.30;;;;;;;5.50;100.00;95194.73;108680;1275;22527;-75
2023/11/11 06:56:38;;;;;;;5.90;4.20;;;;;;;5.50;100.00;95190.89;108668;1272;22528;-75
2023/11/11 06:59:09;;;;;;;7.70;5.80;;;;;;;5.50;100.00;95193.62;108687;1275;22738;-75
2023/11/11 07:01:43;;;;;;;8.90;6.70;;;;;;;5.50;100.00;95194.15;108692;1275;22515;-75
2023/11/11 07:04:23;;;;;;;8.80;6.10;;;;;;;5.53;100.00;95192.11;108686;1273;22525;-75
2023/11/11 07:06:58;;;;;;;8.50;6.60;;;;;;;5.56;100.00;95191.02;108709;1271;22518;-75
2023/11/11 07:09:30;;;;;;;8.20;5.50;;;;;;;5.59;100.00;95187.45;108703;1275;22615;-75
2023/11/11 07:12:02;;;;;;;7.80;5.60;;;;;;;5.64;100.00;95185.83;108696;1269;24128;-75
2023/11/11 07:14:35;;;;;;;8.40;6.30;;;;;;;5.69;100.00;95184.09;108695;1275;22564;-75
2023/11/11 07:17:08;;;;;;;7.20;5.40;;;;;;;5.75;100.00;95180.73;108727;1275;22527;-75
2023/11/11 07:19:41;;;;;;;7.90;6.40;;;;;;;5.81;100.00;95179.10;108715;1275;26298;-75
2023/11/11 07:22:15;;;;;;;7.70;6.00;;;;;;;5.87;100.00;95179.91;108710;1275;22560;-74
2023/11/11 07:24:49;;;;;;;7.20;5.20;;;;;;;5.92;100.00;95179.92;108723;1275;22550;-75
2023/11/11 07:27:21;;;;;;;8.50;5.80;;;;;;;5.93;100.00;95181.09;108693;1275;22595;-75
2023/11/11 07:29:54;;;;;;;8.80;6.70;;;;;;;5.93;100.00;95178.34;108696;1275;22528;-75
2023/11/11 07:32:27;;;;;;;9.00;6.00;;;;;;;5.94;100.00;95181.75;108671;1275;23887;-75
2023/11/11 07:34:59;;;;;;;9.00;7.00;;;;;;;5.94;100.00;95174.08;108683;1275;22507;-75
2023/11/11 07:37:30;;;;;;;8.60;6.20;;;;;;;5.95;100.00;95171.67;108661;1275;23857;-75
2023/11/11 07:40:03;;;;;;;8.10;6.20;;;;;;;6.00;100.00;95170.98;108663;1275;24505;-75
2023/11/11 07:42:35;;;;;;;7.40;5.90;;;;;;;6.02;100.00;95168.52;108675;1275;25551;-75
2023/11/11 07:45:13;;;;;;;8.00;5.90;;;;;;;6.03;100.00;95173.52;108655;1267;22491;-75
2023/11/11 07:47:50;;;;;;;6.60;5.00;;;;;;;6.04;100.00;95174.97;108677;1275;22525;-75
2023/11/11 07:50:23;;;;;;;5.80;4.20;;;;;;;6.05;100.00;95174.55;108688;1275;23910;-75
2023/11/11 07:53:00;;;;;;;6.20;4.80;;;;;;;6.04;100.00;95176.45;108686;1273;25408;-75
2023/11/11 07:55:31;;;;;;;6.70;4.50;;;;;;;6.04;100.00;95171.59;108732;1260;22522;-75
2023/11/11 07:58:08;;;;;;;7.00;5.10;;;;;;;6.03;100.00;95173.93;108704;1267;22609;-75
2023/11/11 08:00:43;;;;;;;9.60;5.80;;;;;;;5.99;100.00;95173.15;108687;1268;23448;-75
2023/11/11 08:03:14;;;;;;;13.60;8.70;;;;;;;5.98;100.00;95176.79;108729;1275;24791;-75
2023/11/11 08:05:46;;;;;;;3.70;2.40;;;;;;;5.99;100.00;95173.68;108705;1271;22620;-75
2023/11/11 08:08:21;;;;;;;3.00;2.30;;;;;;;5.98;100.00;95175.23;108701;1275;22663;-75
2023/11/11 08:10:54;;;;;;;3.70;2.30;;;;;;;5.98;100.00;95174.23;108729;1275;22547;-75
2023/11/11 08:13:28;;;;;;;3.80;2.30;;;;;;;6.00;100.00;95173.55;108659;1275;33430;-75
2023/11/11 08:16:02;;;;;;;4.50;2.80;;;;;;;6.00;100.00;95171.56;108690;1260;25413;-75
2023/11/11 08:18:36;;;;;;;3.70;3.00;;;;;;;6.00;100.00;95170.88;108726;1274;24221;-75
2023/11/11 08:21:09;;;;;;;4.90;3.30;;;;;;;5.99;100.00;95170.47;108710;1275;22558;-75
2023/11/11 08:23:40;;;;;;;5.40;3.80;;;;;;;6.00;100.00;95167.95;108673;1275;27407;-75
2023/11/11 08:26:14;;;;;;;5.20;3.90;;;;;;;6.00;100.00;95163.09;108676;1275;23877;-75
2023/11/11 08:28:48;;;;;;;5.80;4.50;;;;;;;6.00;100.00;95163.25;108743;1275;22521;-75
2023/11/11 08:31:22;;;;;;;5.90;4.60;;;;;;;6.01;100.00;95165.13;108702;1275;22531;-75
2023/11/11 08:33:57;;;;;;;5.60;4.70;;;;;;;6.02;100.00;95165.59;108709;1275;22620;-75
2023/11/11 08:36:36;;;;;;;6.30;5.10;;;;;;;6.04;100.00;95166.29;108692;1273;22540;-75
2023/11/11 08:39:12;;;;;;;6.80;4.80;;;;;;;6.08;100.00;95169.94;108718;1273;23315;-75
2023/11/11 08:41:44;;;;;;;5.70;4.40;;;;;;;6.12;100.00;95170.82;108680;1275;22531;-75
2023/11/11 08:44:16;;;;;;;7.30;4.70;;;;;;;6.13;100.00;95172.64;108682;1275;25243;-75
2023/11/11 08:46:53;;;;;;;6.70;5.40;;;;;;;6.13;100.00;95176.75;108712;1275;22819;-75
2023/11/11 08:49:25;;;;;;;7.10;4.90;;;;;;;6.15;100.00;95176.17;108661;1273;25547;-75
2023/11/11 08:51:57;;;;;;;6.20;5.20;;;;;;;6.19;100.00;95177.55;108650;1275;22831;-76
2023/11/11 08:54:28;;;;;;;5.20;4.00;;;;;;;6.21;100.00;95182.59;108696;1275;22521;-75
2023/11/11 08:57:03;;;;;;;5.20;3.60;;;;;;;6.24;100.00;95183.92;108678;1273;22567;-75
2023/11/11 08:59:37;;;;;;;4.80;3.40;;;;;;;6.24;100.00;95181.60;108723;1275;22525;-75
2023/11/11 09:02:09;;;;;;;4.10;3.20;;;;;;;6.25;100.00;95187.09;108656;1272;26582;-75
2023/11/11 09:04:41;;;;;;;5.00;3.00;;;;;;;6.27;100.00;95186.02;108710;1275;25614;-75
2023/11/11 09:07:12;;;;;;;4.20;3.30;;;;;;;6.25;100.00;95187.01;108681;1267;25310;-75
2023/11/11 09:09:50;;;;;;;3.80;2.40;;;;;;;6.20;100.00;95183.02;108721;1267;22531;-75
2023/11/11 09:12:27;;;;;;;9.40;5.20;;;;;;;6.18;100.00;95183.25;108667;1274;22513;-75
2023/11/11 09:15:06;;;;;;;8.30;4.80;;;;;;;6.18;100.00;95180.50;108699;1274;22564;-75
2023/11/11 09:17:45;;;;;;;4.90;3.10;;;;;;;6.18;100.00;95179.40;108725;1272;22532;-75
2023/11/11 09:20:22;;;;;;;4.70;2.80;;;;;;;6.20;100.00;95179.28;108687;1275;22527;-75
2023/11/11 09:22:59;;;;;;;4.20;3.50;;;;;;;6.22;100.00;95177.36;108705;1267;26702;-75
2023/11/11 09:25:33;;;;;;;8.10;4.60;;;;;;;6.24;100.00;95175.23;108780;1270;22522;-75
2023/11/11 09:28:07;;;;;;;6.30;4.50;;;;;;;6.26;100.00;95177.36;108693;1275;22550;-75
2023/11/11 09:30:44;;;;;;;9.60;5.80;;;;;;;6.28;100.00;95177.96;108728;1275;22535;-75
2023/11/11 09:33:19;;;;;;;10.80;7.30;;;;;;;6.29;100.00;95179.20;108638;1275;26598;-75
2023/11/11 09:35:51;;;;;;;10.30;6.90;;;;;;;6.32;100.00;95178.05;108713;1275;22860;-75
2023/11/11 09:38:26;;;;;;;11.10;7.00;;;;;;;6.30;100.00;95171.46;108688;1267;24106;-75
2023/11/11 09:41:15;;;;;;;10.90;7.90;;;;;;;6.26;100.00;95170.36;108716;1275;22554;-75
2023/11/11 09:44:04;;;;;;;8.80;6.40;;;;;;;6.24;100.00;95170.44;108691;1270;22521;-74
2023/11/11 09:46:46;;;;;;;7.90;6.30;;;;;;;6.24;100.00;95169.13;108736;1267;22523;-75
2023/11/11 09:49:19;;;;;;;8.50;5.70;;;;;;;6.29;100.00;95167.52;108713;1275;22713;-75
2023/11/11 09:51:56;;;;;;;9.60;6.60;;;;;;;6.33;100.00;95163.45;108720;1275;25278;-75
2023/11/11 09:54:29;;;;;;;7.70;5.30;;;;;;;6.31;100.00;95162.38;108738;1270;23310;-75
2023/11/11 09:57:01;;;;;;;9.20;6.20;;;;;;;6.31;100.00;95163.27;108741;1273;23870;-74
2023/11/11 09:59:34;;;;;;;9.10;5.80;;;;;;;6.32;100.00;95163.73;108768;1275;22531;-75
2023/11/11 10:02:09;;;;;;;11.40;7.00;;;;;;;6.33;100.00;95162.98;108642;1269;25799;-75
2023/11/11 10:04:42;;;;;;;10.00;6.00;;;;;;;6.33;100.00;95163.08;108703;1267;22561;-75
2023/11/11 10:07:16;;;;;;;9.60;6.90;;;;;;;6.31;100.00;95168.08;108699;1275;22521;-75
2023/11/11 10:09:48;;;;;;;9.50;6.50;;;;;;;6.30;100.00;95161.65;108687;1275;22518;-74
2023/11/11 10:12:25;;;;;;;8.60;5.90;;;;;;;6.31;100.00;95164.38;108638;1275;22546;-75
2023/11/11 10:15:01;;;;;;;9.00;6.10;;;;;;;6.31;100.00;95161.54;108696;1275;22637;-75
2023/11/11 10:17:41;;;;;;;11.40;8.30;;;;;;;6.32;100.00;95162.14;108704;1275;22532;-75
2023/11/11 10:20:15;;;;;;;14.80;11.80;;;;;;;6.32;100.00;95161.93;108776;1267;22650;-75
2023/11/11 10:22:47;;;;;;;10.20;6.60;;;;;;;6.35;100.00;95158.50;108680;1270;22631;-74
2023/11/11 10:25:20;;;;;;;9.70;7.00;;;;;;;6.36;100.00;95159.41;108706;1269;25529;-75
2023/11/11 10:27:53;;;;;;;10.90;7.30;;;;;;;6.39;100.00;95158.70;108676;1254;25788;-75
2023/11/11 10:30:27;;;;;;;10.30;6.10;;;;;;;6.41;100.00;95158.77;108756;1267;22538;-75
2023/11/11 10:33:04;;;;;;;10.60;6.50;;;;;;;6.40;100.00;95156.36;108694;1275;22938;-74
2023/11/11 10:35:38;;;;;;;13.70;8.30;;;;;;;6.41;100.00;95150.27;108708;1273;25442;-75
2023/11/11 10:38:14;;;;;;;10.40;6.70;;;;;;;6.43;100.00;95147.89;108674;1270;22542;-75
2023/11/11 10:40:45;;;;;;;8.40;5.70;;;;;;;6.46;100.00;95147.61;108735;1275;22529;-75
2023/11/11 10:43:17;;;;;;;10.40;6.20;;;;;;;6.46;100.00;95143.29;108673;1273;25419;-75
2023/11/11 10:45:51;;;;;;;11.50;6.80;;;;;;;6.46;100.00;95142.23;108708;1274;22731;-75
2023/11/11 10:48:24;;;;;;;9.60;5.80;;;;;;;6.45;100.00;95139.15;108685;1275;22953;-75
2023/11/11 10:51:06;;;;;;;9.00;5.90;;;;;;;6.45;100.00;95139.09;108720;1271;22529;-75
2023/11/11 10:53:40;;;;;;;11.50;6.00;;;;;;;6.46;100.00;95138.20;108701;1275;22517;-75
2023/11/11 10:56:13;;;;;;;9.40;6.70;;;;;;;6.44;100.00;95134.49;108675;1275;26449;-75
2023/11/11 10:58:51;;;;;;;11.50;7.30;;;;;;;6.41;100.00;95134.64;108675;1267;24216;-74
2023/11/11 11:01:29;;;;;;;12.30;8.30;;;;;;;6.42;100.00;95132.27;108741;1275;22744;-75
2023/11/11 11:04:04;;;;;;;11.20;8.60;;;;;;;6.42;100.00;95128.95;108731;1267;23059;-74
2023/11/11 11:06:49;;;;;;;11.50;8.20;;;;;;;6.41;100.00;95131.91;108695;1272;23803;-75
2023/11/11 11:09:38;;;;;;;14.20;9.80;;;;;;;6.42;100.00;95129.27;108706;1271;22532;-75
2023/11/11 11:12:21;;;;;;;12.90;9.70;;;;;;;6.43;100.00;95129.87;108749;1269;24870;-75
2023/11/11 11:14:56;;;;;;;12.10;8.20;;;;;;;6.46;100.00;95123.72;108696;1275;22524;-75
2023/11/11 11:17:43;;;;;;;17.50;12.80;;;;;;;6.51;100.00;95121.29;108717;1272;24219;-75
2023/11/11 11:20:20;;;;;;;14.70;10.70;;;;;;;6.57;100.00;95119.44;108767;1275;22525;-75
2023/11/11 11:22:58;;;;;;;14.70;9.90;;;;;;;6.63;100.00;95117.45;108706;1275;22811;-74
2023/11/11 11:25:41;;;;;;;14.60;10.30;;;;;;;6.68;100.00;95114.95;108743;1275;22516;-75
2023/11/11 11:28:25;;;;;;;14.00;10.90;;;;;;;6.70;100.00;95122.54;108701;1275;25284;-75
2023/11/11 11:30:59;;;;;;;15.30;11.70;;;;;;;6.70;100.00;95117.48;108722;1266;22532;-75
2023/11/11 11:33:35;;;;;;;17.30;12.20;;;;;;;6.68;100.00;95117.58;108718;1275;23006;-75
2023/11/11 11:36:14;;;;;;;16.50;11.40;;;;;;;6.66;100.00;95114.49;108835;1275;24636;-75
2023/11/11 11:38:52;;;;;;;16.60;11.90;;;;;;;6.63;100.00;95115.82;108720;1275;22527;-75
2023/11/11 11:41:27;;;;;;;17.60;12.90;;;;;;;6.61;100.00;95115.21;108709;1275;24215;-74
2023/11/11 11:44:02;;;;;;;16.30;13.60;;;;;;;6.60;100.00;95119.91;108607;1275;167896;-74
2023/11/11 11:46:34;;;;;;;18.10;13.70;;;;;;;6.60;100.00;95117.43;108701;1267;24228;-75
2023/11/11 11:49:06;;;;;;;15.50;11.20;;;;;;;6.62;100.00;95118.31;108679;1269;22574;-75